Time;durP1;ratioP1;P1;durP2;ratioP2;P2;SDS_P1;SDS_P2;PMS_P1;PMS_P2;Temp;Humidity;BMP_temperature;BMP_pressure;BME280_temperature;BME280_humidity;BME280_pressure;Samples;Min_cycle;Max_cycle;Signal;HPM_P1;HPM_P2
2022/09/15 00:01:38;;;;;;;2.27;1.97;;;;;;;19.48;84.63;97757.22;5151572;27;39963;-77
2022/09/15 00:04:08;;;;;;;1.90;1.60;;;;;;;19.35;84.71;97741.69;5136123;27;40643;-78
2022/09/15 00:06:36;;;;;;;2.13;2.00;;;;;;;19.35;84.64;97741.69;5136132;27;42712;-78
2022/09/15 00:09:04;;;;;;;2.30;1.70;;;;;;;19.34;84.45;97743.53;5118884;27;43891;-80
2022/09/15 00:11:34;;;;;;;2.37;1.80;;;;;;;19.43;84.66;97762.25;5136230;27;40013;-79
2022/09/15 00:14:04;;;;;;;1.63;1.47;;;;;;;19.41;84.66;97756.25;5169548;27;42570;-78
2022/09/15 00:16:33;;;;;;;1.93;1.47;;;;;;;19.40;84.67;97755.44;5152234;27;42693;-78
2022/09/15 00:19:01;;;;;;;4.30;2.17;;;;;;;19.37;84.64;97750.41;5169399;27;40729;-78
2022/09/15 00:21:32;;;;;;;1.60;1.50;;;;;;;19.35;84.94;97747.06;5117962;27;38958;-78
2022/09/15 00:24:01;;;;;;;1.70;1.60;;;;;;;19.34;85.02;97730.13;5134842;27;40727;-77
2022/09/15 00:26:30;;;;;;;1.60;1.50;;;;;;;19.34;85.13;97729.28;5134308;27;42670;-80
2022/09/15 00:28:59;;;;;;;2.33;1.40;;;;;;;19.34;84.82;97731.97;5117188;27;41741;-79
2022/09/15 00:31:29;;;;;;;2.70;1.60;;;;;;;19.32;84.99;97723.25;5152058;27;38889;-81
2022/09/15 00:34:01;;;;;;;1.83;1.60;;;;;;;19.28;85.09;97720.09;5169437;27;40524;-77
2022/09/15 00:36:30;;;;;;;1.60;1.50;;;;;;;19.32;85.06;97725.94;5131730;27;42630;-81
2022/09/15 00:38:58;;;;;;;2.57;1.40;;;;;;;19.30;84.83;97718.06;5116964;27;41107;-79
2022/09/15 00:41:26;;;;;;;2.83;1.70;;;;;;;19.28;84.77;97724.63;5134674;27;40206;-78
2022/09/15 00:43:55;;;;;;;2.90;1.77;;;;;;;19.32;84.58;97733.97;5134737;27;40822;-79
2022/09/15 00:46:25;;;;;;;1.67;1.50;;;;;;;19.30;84.70;97727.94;5117270;27;43740;-78
2022/09/15 00:48:58;;;;;;;1.97;1.37;;;;;;;19.24;84.96;97726.84;5152865;27;42192;-80
2022/09/15 00:51:37;;;;;;;1.70;1.60;;;;;;;19.24;85.41;97736.72;5151832;27;38669;-78
2022/09/15 00:54:08;;;;;;;2.30;1.60;;;;;;;19.19;85.45;97737.25;5117709;27;43376;-78
2022/09/15 00:56:38;;;;;;;1.50;1.40;;;;;;;19.15;85.82;97729.75;5135346;27;42812;-77
2022/09/15 00:59:11;;;;;;;1.50;1.40;;;;;;;18.94;85.51;97696.31;5152828;27;42406;-79
2022/09/15 01:01:41;;;;;;;2.50;1.70;;;;;;;19.11;86.02;97728.44;5114792;27;39945;-78
2022/09/15 01:04:09;;;;;;;1.97;1.50;;;;;;;19.09;85.80;97725.91;5114514;27;41179;-77
2022/09/15 01:06:42;;;;;;;3.17;1.73;;;;;;;19.06;86.33;97720.06;5126775;27;42675;-78
2022/09/15 01:09:14;;;;;;;1.80;1.70;;;;;;;19.07;86.13;97729.78;5114095;27;41693;-78
2022/09/15 01:11:43;;;;;;;2.37;1.67;;;;;;;18.94;86.13;97700.84;5131414;27;39831;-78
2022/09/15 01:14:11;;;;;;;1.70;1.60;;;;;;;19.04;86.09;97727.47;5128438;27;42019;-80
2022/09/15 01:16:52;;;;;;;1.67;1.57;;;;;;;18.98;86.35;97711.06;5129883;27;43890;-77
2022/09/15 01:19:52;;;;;;;2.00;1.40;;;;;;;18.92;86.38;97703.69;5126172;27;42310;-78
2022/09/15 01:22:33;;;;;;;1.93;1.43;;;;;;;19.01;86.46;97718.75;5112960;27;39035;-77
2022/09/15 01:25:08;;;;;;;2.07;1.50;;;;;;;19.01;86.32;97716.06;5125314;27;44057;-79
2022/09/15 01:28:04;;;;;;;1.70;1.40;;;;;;;19.03;86.33;97710.53;5121589;27;42699;-78
2022/09/15 01:30:36;;;;;;;1.53;1.43;;;;;;;19.05;86.25;97705.81;5127513;27;41548;-78
2022/09/15 01:33:19;;;;;;;2.03;1.40;;;;;;;18.93;85.96;97694.63;5146043;27;40038;-78
2022/09/15 01:36:05;;;;;;;1.60;1.50;;;;;;;19.08;85.87;97702.78;5124593;27;42397;-78
2022/09/15 01:38:45;;;;;;;1.80;1.30;;;;;;;19.10;85.91;97707.97;5113302;27;41815;-78
2022/09/15 01:41:17;;;;;;;1.80;1.70;;;;;;;19.11;85.89;97709.63;5132372;27;42716;-79
2022/09/15 01:43:51;;;;;;;3.00;1.70;;;;;;;19.10;85.65;97705.28;5132221;27;39858;-79
2022/09/15 01:46:24;;;;;;;1.57;1.43;;;;;;;19.05;85.78;97696.91;5129771;27;41671;-78
2022/09/15 01:48:55;;;;;;;1.47;1.30;;;;;;;19.08;86.10;97699.25;5116409;27;41772;-78
2022/09/15 01:51:25;;;;;;;1.47;1.37;;;;;;;19.10;86.03;97697.22;5132743;27;41998;-78
2022/09/15 01:53:54;;;;;;;2.03;1.70;;;;;;;19.10;86.01;97699.91;5115097;27;39132;-79
2022/09/15 01:56:22;;;;;;;1.40;1.30;;;;;;;19.13;85.63;97696.88;5132386;27;40009;-78
2022/09/15 01:58:51;;;;;;;1.13;1.10;;;;;;;19.13;85.73;97695.03;5115375;27;45370;-79
2022/09/15 02:01:30;;;;;;;1.20;1.10;;;;;;;19.18;85.69;97697.16;5119484;27;41475;-77
2022/09/15 02:04:04;;;;;;;1.50;1.40;;;;;;;19.09;85.56;97676.78;5138095;27;41676;-77
2022/09/15 02:06:38;;;;;;;1.30;1.20;;;;;;;18.93;85.54;97654.41;5120170;27;41877;-77
2022/09/15 02:09:12;;;;;;;1.53;1.43;;;;;;;19.14;85.27;97682.47;5120711;27;41652;-77
2022/09/15 02:11:51;;;;;;;2.47;1.20;;;;;;;19.09;85.38;97663.34;5120849;27;40842;-77
2022/09/15 02:14:32;;;;;;;2.30;1.50;;;;;;;19.15;85.35;97674.22;5137245;27;39852;-77
2022/09/15 02:17:04;;;;;;;1.30;1.20;;;;;;;19.26;84.93;97689.09;5119130;27;40677;-80
2022/09/15 02:19:36;;;;;;;4.73;1.50;;;;;;;19.21;85.05;97678.03;5116988;27;41759;-79
2022/09/15 02:22:09;;;;;;;1.43;1.33;;;;;;;19.26;84.88;97689.09;5123273;27;43147;-78
2022/09/15 02:24:43;;;;;;;1.37;1.27;;;;;;;19.26;84.86;97683.72;5129620;27;39684;-77
2022/09/15 02:27:16;;;;;;;1.50;1.23;;;;;;;19.25;84.75;97679.34;5127204;27;42023;-78
2022/09/15 02:29:48;;;;;;;1.20;1.10;;;;;;;19.28;84.70;97676.31;5096546;27;42779;-76
2022/09/15 02:32:22;;;;;;;1.27;1.17;;;;;;;19.29;84.82;97675.28;5125887;27;42953;-79
2022/09/15 02:34:51;;;;;;;1.37;1.27;;;;;;;19.24;84.85;97669.63;5111157;27;40032;-79
2022/09/15 02:37:22;;;;;;;2.03;1.50;;;;;;;19.25;84.78;97671.31;5131740;27;40869;-79
2022/09/15 02:39:53;;;;;;;1.60;1.10;;;;;;;19.20;85.14;97669.16;5135072;27;43755;-79
2022/09/15 02:42:25;;;;;;;2.60;1.77;;;;;;;19.18;85.20;97670.31;5134526;27;42478;-77
2022/09/15 02:44:52;;;;;;;1.80;1.63;;;;;;;19.16;85.40;97673.22;5100803;27;39209;-80
2022/09/15 02:47:22;;;;;;;1.30;1.20;;;;;;;19.13;85.57;97665.53;5134256;27;42962;-80
2022/09/15 02:49:50;;;;;;;1.33;1.23;;;;;;;19.15;85.51;97665.34;5112028;27;41334;-79
2022/09/15 02:52:17;;;;;;;1.27;1.17;;;;;;;19.16;85.44;97665.16;5130337;27;42357;-78
2022/09/15 02:54:45;;;;;;;1.77;1.63;;;;;;;19.17;85.56;97661.44;5099043;27;39827;-79
2022/09/15 02:57:13;;;;;;;2.50;1.40;;;;;;;19.16;85.73;97664.34;5128808;27;42541;-77
2022/09/15 03:02:24;;;;;;;1.50;1.40;;;;;;;19.15;85.68;97657.28;5115441;27;43139;-78
2022/09/15 03:04:51;;;;;;;2.27;1.30;;;;;;;19.15;85.68;97655.44;5134485;27;40962;-79
2022/09/15 03:07:20;;;;;;;1.20;1.10;;;;;;;19.05;85.61;97637.88;5115277;27;40673;-77
2022/09/15 03:09:48;;;;;;;1.83;1.20;;;;;;;18.98;85.57;97629.72;5132906;27;41708;-78
2022/09/15 03:12:16;;;;;;;1.67;1.30;;;;;;;19.18;85.67;97659.59;5133402;27;42408;-78
2022/09/15 03:14:45;;;;;;;2.23;1.30;;;;;;;19.06;85.69;97645.75;5131540;27;38972;-79
2022/09/15 03:17:13;;;;;;;1.47;1.37;;;;;;;19.20;85.63;97671.00;5133691;27;42685;-78
2022/09/15 03:19:42;;;;;;;2.67;1.37;;;;;;;19.22;85.56;97668.97;5132563;27;43623;-78
2022/09/15 03:22:10;;;;;;;2.40;1.20;;;;;;;19.22;85.47;97661.75;5115053;27;41207;-77
2022/09/15 03:24:38;;;;;;;1.70;1.40;;;;;;;19.23;85.52;97657.22;5115506;27;39587;-78
2022/09/15 03:27:06;;;;;;;1.17;1.07;;;;;;;19.22;85.55;97658.22;5115088;27;40823;-79
2022/09/15 03:29:33;;;;;;;1.57;1.40;;;;;;;19.08;85.44;97637.53;5133634;27;43699;-78
2022/09/15 03:32:02;;;;;;;1.50;1.40;;;;;;;19.18;85.69;97649.69;5131722;27;42362;-77
2022/09/15 03:34:30;;;;;;;1.73;1.57;;;;;;;19.18;85.72;97640.81;5115255;27;38958;-78
2022/09/15 03:36:59;;;;;;;1.30;1.20;;;;;;;19.20;85.52;97642.31;5114287;27;40530;-77
2022/09/15 03:39:27;;;;;;;1.30;1.13;;;;;;;19.22;85.59;97644.81;5114881;27;43096;-77
2022/09/15 03:41:55;;;;;;;1.83;1.20;;;;;;;19.25;85.44;97650.66;5132968;27;42190;-79
2022/09/15 03:44:23;;;;;;;1.30;1.20;;;;;;;19.28;85.29;97649.47;5115080;27;38826;-77
2022/09/15 03:46:51;;;;;;;1.30;1.20;;;;;;;19.32;85.18;97650.75;5114628;27;42097;-79
2022/09/15 03:49:19;;;;;;;1.40;1.30;;;;;;;19.33;85.27;97652.44;5132173;27;43742;-77
2022/09/15 03:51:47;;;;;;;2.67;1.60;;;;;;;19.26;85.58;97651.50;5114475;27;41214;-80
2022/09/15 03:54:16;;;;;;;1.50;1.40;;;;;;;19.26;85.53;97646.97;5133859;27;39902;-81
2022/09/15 03:56:46;;;;;;;1.60;1.40;;;;;;;19.23;85.86;97651.84;5131846;27;41742;-78
2022/09/15 03:59:14;;;;;;;1.80;1.40;;;;;;;19.21;85.92;97645.81;5131676;27;43790;-80
2022/09/15 04:01:42;;;;;;;1.63;1.23;;;;;;;19.12;86.14;97638.84;5114106;27;42354;-80
2022/09/15 04:04:09;;;;;;;1.50;1.40;;;;;;;19.09;86.34;97639.22;5131999;27;39599;-80
2022/09/15 04:06:37;;;;;;;1.47;1.37;;;;;;;19.12;86.83;97646.91;5132079;27;41738;-82
2022/09/15 04:09:05;;;;;;;1.73;1.33;;;;;;;18.98;86.83;97633.25;5115114;27;41792;-83
2022/09/15 04:11:34;;;;;;;1.30;1.20;;;;;;;19.09;87.03;97636.53;5131772;27;41335;-80
2022/09/15 04:14:02;;;;;;;1.20;1.20;;;;;;;19.04;87.15;97631.69;5132683;27;40230;-82
2022/09/15 04:16:30;;;;;;;0.97;0.97;;;;;;;19.11;87.12;97632.66;5132665;27;40924;-80
2022/09/15 04:18:58;;;;;;;1.30;1.20;;;;;;;19.13;87.34;97637.84;5115582;27;42786;-82
2022/09/15 04:21:26;;;;;;;1.20;1.03;;;;;;;19.13;87.26;97630.63;5134103;27;43255;-81
2022/09/15 04:23:55;;;;;;;1.03;1.03;;;;;;;19.12;87.48;97628.13;5115254;27;39261;-81
2022/09/15 04:26:26;;;;;;;0.97;0.93;;;;;;;19.00;88.09;97620.50;5115539;27;42174;-83
2022/09/15 04:28:55;;;;;;;1.40;1.20;;;;;;;19.00;87.80;97620.50;5115314;27;42275;-79
2022/09/15 04:31:24;;;;;;;1.40;1.13;;;;;;;19.10;87.81;97627.47;5132541;27;43146;-78
2022/09/15 04:33:53;;;;;;;1.10;1.00;;;;;;;18.98;88.02;97611.78;5115067;27;39568;-80
2022/09/15 04:36:23;;;;;;;1.20;1.10;;;;;;;18.99;88.18;97609.94;5132585;27;40654;-81
2022/09/15 04:38:51;;;;;;;1.10;1.00;;;;;;;18.81;87.68;97588.75;5131928;27;42791;-82
2022/09/15 04:41:19;;;;;;;1.10;1.00;;;;;;;19.01;87.68;97610.59;5133422;27;42361;-82
2022/09/15 04:43:47;;;;;;;2.30;1.00;;;;;;;19.14;87.95;97637.66;5130989;27;40052;-81
2022/09/15 04:46:17;;;;;;;1.43;1.33;;;;;;;19.05;87.93;97624.47;5131888;27;40986;-80
2022/09/15 04:48:47;;;;;;;2.87;1.27;;;;;;;19.12;87.81;97650.44;5131456;27;42756;-80
2022/09/15 04:51:17;;;;;;;1.50;1.40;;;;;;;19.09;88.19;97647.25;5133951;27;42730;-80
2022/09/15 04:53:46;;;;;;;2.50;1.40;;;;;;;19.06;88.83;97644.91;5132029;27;39808;-81
2022/09/15 04:56:15;;;;;;;1.27;1.07;;;;;;;18.91;88.62;97656.44;5132650;27;40762;-82
2022/09/15 04:58:44;;;;;;;1.07;0.90;;;;;;;18.71;88.95;97649.84;5115266;27;43208;-81
2022/09/15 05:01:15;;;;;;;2.27;1.03;;;;;;;18.77;89.06;97667.94;5132507;27;41046;-82
2022/09/15 05:03:45;;;;;;;1.07;0.97;;;;;;;18.69;89.06;97670.63;5115234;27;39672;-83
2022/09/15 05:06:15;;;;;;;2.00;0.60;;;;;;;18.63;89.13;97671.34;5133594;27;42294;-83
2022/09/15 05:08:46;;;;;;;0.50;0.50;;;;;;;18.59;89.24;97680.75;5115232;27;41953;-83
2022/09/15 05:11:14;;;;;;;1.00;0.53;;;;;;;18.54;89.18;97683.09;5133789;27;42248;-84
2022/09/15 05:13:43;;;;;;;0.50;0.50;;;;;;;18.42;89.02;97671.91;5136205;27;38866;-84
2022/09/15 05:16:13;;;;;;;1.10;0.63;;;;;;;18.33;89.13;97675.63;5119173;27;40864;-84
2022/09/15 05:18:43;;;;;;;0.50;0.50;;;;;;;18.36;88.99;97691.38;5134383;27;43522;-85
2022/09/15 05:21:14;;;;;;;0.70;0.70;;;;;;;18.41;88.79;97705.09;5090332;27;41089;-81
2022/09/15 05:23:42;;;;;;;0.97;0.50;;;;;;;18.41;88.88;97701.59;5132386;27;39573;-86
2022/09/15 05:26:14;;;;;;;0.83;0.83;;;;;;;18.35;88.70;97699.59;5135017;27;42793;-84
2022/09/15 05:28:42;;;;;;;0.90;0.57;;;;;;;18.13;89.06;97675.22;5116199;27;41850;-84
2022/09/15 05:31:12;;;;;;;0.90;0.60;;;;;;;18.17;89.11;97687.25;5116873;27;41345;-84
2022/09/15 05:33:40;;;;;;;0.40;0.40;;;;;;;18.14;89.17;97687.59;5117171;27;40030;-84
2022/09/15 05:36:08;;;;;;;0.80;0.40;;;;;;;17.99;88.98;97681.25;5134768;27;41521;-84
2022/09/15 05:38:37;;;;;;;0.40;0.40;;;;;;;18.26;88.77;97728.25;5135183;27;42982;-83
2022/09/15 05:41:07;;;;;;;0.60;0.50;;;;;;;18.27;88.82;97736.13;5117270;27;41154;-84
2022/09/15 05:43:36;;;;;;;0.60;0.40;;;;;;;18.15;88.80;97729.47;5134625;27;40203;-84
2022/09/15 05:46:04;;;;;;;0.33;0.33;;;;;;;18.24;88.73;97746.34;5117670;27;41094;-85
2022/09/15 05:48:32;;;;;;;0.50;0.40;;;;;;;18.12;88.90;97737.84;5117344;27;43006;-85
2022/09/15 05:51:00;;;;;;;1.10;0.50;;;;;;;18.12;88.99;97748.56;5117751;27;42211;-87
2022/09/15 05:53:28;;;;;;;0.40;0.20;;;;;;;18.19;88.65;97767.44;5134396;27;40963;-85
2022/09/15 05:55:59;;;;;;;0.80;0.50;;;;;;;18.09;88.81;97748.88;5117201;27;40413;-87
2022/09/15 05:58:28;;;;;;;0.67;0.43;;;;;;;18.16;88.95;97768.66;5133587;27;42809;-86
2022/09/15 06:00:56;;;;;;;0.60;0.33;;;;;;;18.08;88.63;97752.56;5117243;27;41370;-87
2022/09/15 06:03:25;;;;;;;0.40;0.30;;;;;;;18.09;88.58;97762.28;5134354;27;39369;-86
2022/09/15 06:05:58;;;;;;;0.40;0.40;;;;;;;18.10;88.49;97765.81;5117957;27;40807;-85
2022/09/15 06:08:30;;;;;;;0.93;0.30;;;;;;;18.00;88.68;97749.91;5117739;27;43448;-86
2022/09/15 06:11:04;;;;;;;0.63;0.30;;;;;;;18.03;88.44;97765.66;5118540;27;41408;-84
2022/09/15 06:13:32;;;;;;;0.70;0.33;;;;;;;18.17;88.38;97782.91;5118026;27;39046;-85
2022/09/15 06:16:05;;;;;;;0.33;0.33;;;;;;;18.16;88.38;97791.94;5118026;27;42341;-84
2022/09/15 06:18:36;;;;;;;0.40;0.40;;;;;;;18.19;88.07;97791.56;5117791;27;41466;-85
2022/09/15 06:21:09;;;;;;;0.30;0.30;;;;;;;18.09;88.03;97775.69;5135285;27;41910;-85
2022/09/15 06:23:37;;;;;;;1.60;0.30;;;;;;;18.10;87.86;97793.44;5133878;27;40540;-86
2022/09/15 06:26:17;;;;;;;0.30;0.30;;;;;;;18.04;88.07;97787.94;5135050;27;41312;-85
2022/09/15 06:28:48;;;;;;;0.47;0.47;;;;;;;18.14;87.89;97794.78;5117440;27;42894;-84
2022/09/15 06:31:17;;;;;;;0.30;0.30;;;;;;;18.04;87.70;97783.41;5132174;27;42902;-85
2022/09/15 06:33:47;;;;;;;0.90;0.50;;;;;;;18.13;87.52;97808.34;5116229;27;40519;-86
2022/09/15 06:36:16;;;;;;;0.40;0.40;;;;;;;18.01;87.41;97799.81;5116628;27;42298;-85
2022/09/15 06:38:44;;;;;;;0.57;0.43;;;;;;;18.10;87.75;97814.88;5116020;27;41703;-85
2022/09/15 06:41:14;;;;;;;0.70;0.50;;;;;;;17.98;87.46;97813.53;5133647;27;42144;-85
2022/09/15 06:43:42;;;;;;;0.40;0.40;;;;;;;17.88;87.50;97804.84;5116529;27;40137;-84
2022/09/15 06:46:13;;;;;;;0.60;0.60;;;;;;;17.69;87.34;97781.88;5116663;27;40720;-85
2022/09/15 06:48:42;;;;;;;1.23;0.60;;;;;;;17.92;87.14;97811.53;5116587;27;42999;-85
2022/09/15 06:51:12;;;;;;;0.50;0.50;;;;;;;18.07;87.09;97831.28;5133605;27;42801;-87
2022/09/15 06:53:40;;;;;;;1.80;0.73;;;;;;;17.97;86.88;97819.91;5116172;27;40041;-86
2022/09/15 06:56:10;;;;;;;0.90;0.80;;;;;;;17.98;86.90;97832.28;5116393;27;41860;-85
2022/09/15 06:58:41;;;;;;;1.20;0.80;;;;;;;18.05;86.58;97848.53;5115995;27;43209;-87
2022/09/15 07:01:11;;;;;;;0.83;0.83;;;;;;;17.96;86.15;97847.69;5116236;27;42472;-85
2022/09/15 07:03:42;;;;;;;0.83;0.83;;;;;;;17.93;86.41;97856.03;5116083;27;39031;-86
2022/09/15 07:06:11;;;;;;;1.70;0.90;;;;;;;17.98;86.17;97864.44;5133761;27;41570;-84
2022/09/15 07:08:40;;;;;;;0.87;0.80;;;;;;;18.01;86.08;97869.47;5132884;27;42709;-84
2022/09/15 07:11:08;;;;;;;0.83;0.83;;;;;;;18.08;86.23;97870.47;5133410;27;41627;-86
2022/09/15 07:13:36;;;;;;;1.17;1.10;;;;;;;18.07;86.08;97852.72;5115766;27;39152;-85
2022/09/15 07:16:07;;;;;;;1.23;0.80;;;;;;;18.26;85.76;97856.91;5116039;27;40878;-84
2022/09/15 07:18:36;;;;;;;1.80;1.07;;;;;;;18.35;85.55;97860.41;5132724;27;42054;-85
2022/09/15 07:21:06;;;;;;;0.87;0.87;;;;;;;18.51;84.93;97861.22;5117088;27;42407;-84
2022/09/15 07:23:34;;;;;;;1.30;1.07;;;;;;;18.59;84.19;97873.81;5116897;27;38595;-84
2022/09/15 07:26:08;;;;;;;1.53;1.10;;;;;;;18.48;83.99;97855.38;5134348;27;41798;-84
2022/09/15 07:28:36;;;;;;;1.17;1.00;;;;;;;18.65;83.70;97883.88;5135195;27;42342;-85
2022/09/15 07:31:07;;;;;;;2.97;1.60;;;;;;;18.53;82.35;97871.78;5117376;27;41459;-83
2022/09/15 07:33:35;;;;;;;2.00;1.50;;;;;;;18.56;81.58;97890.19;5133656;27;39791;-83
2022/09/15 07:36:04;;;;;;;2.13;1.70;;;;;;;18.44;80.78;97891.56;5134965;27;41733;-82
2022/09/15 07:38:33;;;;;;;2.97;1.73;;;;;;;18.42;80.58;97898.94;5132761;27;44609;-85
2022/09/15 07:41:04;;;;;;;2.07;1.97;;;;;;;18.29;80.72;97884.22;5133998;27;43284;-83
2022/09/15 07:43:32;;;;;;;2.10;1.83;;;;;;;18.38;80.39;97902.97;5134632;27;40864;-83
2022/09/15 07:46:01;;;;;;;3.03;1.67;;;;;;;18.25;80.29;97893.59;5116637;27;40881;-83
2022/09/15 07:48:31;;;;;;;4.07;2.10;;;;;;;18.35;80.34;97914.00;5115141;27;43263;-83
2022/09/15 07:50:59;;;;;;;4.13;2.10;;;;;;;18.24;79.57;97901.78;5115162;27;43157;-82
2022/09/15 07:53:29;;;;;;;5.70;1.90;;;;;;;17.98;79.96;97875.16;5132294;27;39896;-83
2022/09/15 07:55:57;;;;;;;3.50;2.13;;;;;;;18.26;79.81;97922.06;5115325;27;41867;-82
2022/09/15 07:58:25;;;;;;;3.20;1.70;;;;;;;18.26;79.97;97921.22;5115266;27;41860;-82
2022/09/15 08:00:53;;;;;;;3.33;2.33;;;;;;;18.29;79.90;97926.25;5133267;27;41969;-82
2022/09/15 08:03:21;;;;;;;3.00;1.73;;;;;;;18.23;79.86;97921.56;5115988;27;40470;-82
2022/09/15 08:05:50;;;;;;;2.60;1.83;;;;;;;18.15;79.78;97910.84;5133042;27;41729;-82
2022/09/15 08:08:18;;;;;;;4.23;2.10;;;;;;;18.34;80.09;97934.63;5115410;27;41604;-83
2022/09/15 08:10:46;;;;;;;1.90;1.80;;;;;;;18.38;79.94;97943.19;5133190;27;41253;-82
2022/09/15 08:13:13;;;;;;;3.33;1.70;;;;;;;18.42;79.86;97948.00;5115510;27;39683;-83
2022/09/15 08:15:41;;;;;;;2.97;1.83;;;;;;;18.47;80.19;97944.84;5134139;27;42720;-83
2022/09/15 08:18:09;;;;;;;2.00;1.80;;;;;;;18.46;79.96;97937.81;5132042;27;42825;-84
2022/09/15 08:20:38;;;;;;;2.00;1.90;;;;;;;18.50;80.02;97933.78;5114942;27;41132;-82
2022/09/15 08:23:08;;;;;;;1.83;1.67;;;;;;;18.58;79.79;97941.84;5131340;27;39933;-84
2022/09/15 08:25:36;;;;;;;2.03;1.83;;;;;;;18.60;79.66;97951.41;5114512;27;40846;-83
2022/09/15 08:28:04;;;;;;;3.13;2.07;;;;;;;18.60;79.49;97950.56;5114043;27;45027;-82
2022/09/15 08:30:32;;;;;;;3.33;2.13;;;;;;;18.64;79.40;97949.25;5131573;27;42017;-85
2022/09/15 08:33:00;;;;;;;2.37;1.77;;;;;;;18.62;79.37;97929.78;5131307;27;40104;-83
2022/09/15 08:35:30;;;;;;;2.47;1.73;;;;;;;19.01;79.08;97971.00;5114477;27;43195;-84
2022/09/15 08:37:57;;;;;;;1.80;1.70;;;;;;;19.15;78.96;97961.41;5113597;27;42840;-83
2022/09/15 08:40:31;;;;;;;2.83;2.00;;;;;;;19.42;78.69;97976.22;5131312;27;43339;-82
2022/09/15 08:43:06;;;;;;;3.00;1.80;;;;;;;19.58;78.44;97962.78;5114221;27;39201;-82
2022/09/15 08:45:44;;;;;;;2.10;1.93;;;;;;;19.79;77.37;97954.13;5113642;27;42130;-83
2022/09/15 08:48:16;;;;;;;3.40;2.07;;;;;;;20.01;77.11;97961.41;5114279;27;41815;-86
2022/09/15 08:50:47;;;;;;;3.57;2.10;;;;;;;20.12;76.31;97930.59;5131606;27;41949;-81
2022/09/15 08:53:20;;;;;;;3.30;1.67;;;;;;;20.51;75.23;97964.63;5131056;27;38895;-82
2022/09/15 08:55:52;;;;;;;2.67;1.90;;;;;;;20.86;74.33;97982.81;5114474;27;42225;-83
2022/09/15 08:58:23;;;;;;;2.40;1.80;;;;;;;20.98;72.94;97973.28;5114968;27;41734;-85
2022/09/15 09:01:01;;;;;;;2.20;1.80;;;;;;;21.10;72.45;97977.19;5115261;27;42027;-87
2022/09/15 09:03:42;;;;;;;3.43;2.23;;;;;;;21.01;71.86;97940.63;5114962;27;38673;-86
2022/09/15 09:06:22;;;;;;;3.93;1.70;;;;;;;21.23;71.50;97983.84;5132278;27;42078;-82
2022/09/15 09:09:12;;;;;;;4.23;1.87;;;;;;;21.17;70.83;97998.81;5114243;27;41846;-84
2022/09/15 09:11:58;;;;;;;2.63;1.97;;;;;;;21.06;71.10;97986.66;5114483;27;40845;-87
2022/09/15 09:14:38;;;;;;;3.53;2.60;;;;;;;21.13;71.01;97982.22;5130198;27;41017;-83
2022/09/15 09:17:27;;;;;;;2.70;2.03;;;;;;;21.39;70.73;97986.34;5114195;27;41312;-83
2022/09/15 09:20:15;;;;;;;2.23;1.70;;;;;;;21.76;69.88;97997.00;5132838;27;43115;-86
2022/09/15 09:22:45;;;;;;;2.80;2.37;;;;;;;22.17;68.93;98004.59;5113821;27;42274;-80
2022/09/15 09:25:17;;;;;;;2.73;1.90;;;;;;;22.64;67.91;98003.22;5130814;27;39973;-81
2022/09/15 09:27:48;;;;;;;2.60;1.80;;;;;;;22.96;67.85;98002.75;5130166;27;41795;-81
2022/09/15 09:30:17;;;;;;;3.20;2.20;;;;;;;23.16;66.15;98013.69;5131940;27;42571;-79
2022/09/15 09:32:51;;;;;;;4.73;1.73;;;;;;;23.32;65.15;98007.16;5113220;27;40863;-79
2022/09/15 09:35:28;;;;;;;2.90;1.90;;;;;;;23.49;64.46;98013.94;5127548;27;40249;-79
2022/09/15 09:37:58;;;;;;;1.90;1.70;;;;;;;23.53;63.75;98026.03;5128451;27;41731;-81
2022/09/15 09:40:27;;;;;;;2.67;1.53;;;;;;;23.45;61.96;98024.31;5130353;27;41745;-80
2022/09/15 09:42:56;;;;;;;4.30;1.93;;;;;;;23.21;61.49;98012.06;5113129;27;42488;-79
2022/09/15 09:45:24;;;;;;;4.80;1.97;;;;;;;23.08;62.05;98020.06;5113084;27;40262;-81
2022/09/15 09:47:54;;;;;;;3.90;1.70;;;;;;;22.84;61.79;98015.94;5112938;27;41186;-81
2022/09/15 09:50:34;;;;;;;3.63;1.77;;;;;;;22.76;60.35;98039.50;5113448;27;42693;-81
2022/09/15 09:53:19;;;;;;;2.50;1.60;;;;;;;22.71;60.50;98020.34;5130751;27;41029;-82
2022/09/15 09:55:47;;;;;;;2.33;1.30;;;;;;;22.75;60.72;98033.22;5127604;27;40801;-81
2022/09/15 09:58:20;;;;;;;2.63;1.30;;;;;;;22.81;61.45;98024.41;5131225;27;41861;-81
2022/09/15 10:00:48;;;;;;;4.07;1.50;;;;;;;22.72;60.54;98011.22;5131008;27;43398;-80
2022/09/15 10:03:17;;;;;;;4.73;1.47;;;;;;;22.84;60.87;98026.72;5116059;27;42209;-82
2022/09/15 10:06:01;;;;;;;2.27;1.33;;;;;;;23.00;61.92;98017.50;5134022;27;39829;-81
2022/09/15 10:08:29;;;;;;;2.57;1.10;;;;;;;23.35;61.27;98022.97;5133654;27;40953;-81
2022/09/15 10:11:02;;;;;;;4.27;1.70;;;;;;;23.45;60.33;97996.44;5116657;27;44142;-83
2022/09/15 10:13:34;;;;;;;1.83;1.43;;;;;;;23.59;59.30;98036.06;5116262;27;40741;-82
2022/09/15 10:16:05;;;;;;;1.73;0.97;;;;;;;23.62;58.89;98032.94;5117806;27;39804;-82
2022/09/15 10:18:36;;;;;;;1.83;1.30;;;;;;;23.76;59.12;98020.34;5134289;27;42319;-81
2022/09/15 10:21:07;;;;;;;2.80;1.20;;;;;;;24.10;57.95;98043.84;5117362;27;42035;-81
2022/09/15 10:23:36;;;;;;;3.30;1.07;;;;;;;24.11;57.82;98046.31;5133902;27;42318;-81
2022/09/15 10:26:22;;;;;;;1.50;1.40;;;;;;;24.12;55.09;98063.38;5117484;27;40814;-82
2022/09/15 10:29:16;;;;;;;1.13;1.03;;;;;;;24.32;57.05;98037.28;5135649;27;42215;-82
2022/09/15 10:31:45;;;;;;;2.00;1.10;;;;;;;24.40;57.32;98028.97;5129945;27;42706;-81
2022/09/15 10:34:29;;;;;;;1.63;1.10;;;;;;;24.49;56.60;98033.16;5117156;27;43921;-82
2022/09/15 10:37:07;;;;;;;2.00;1.30;;;;;;;24.51;57.13;98025.66;5116726;27;40093;-82
2022/09/15 10:39:48;;;;;;;1.33;0.90;;;;;;;24.37;57.27;98018.56;5131339;27;41707;-82
2022/09/15 10:42:37;;;;;;;1.60;1.10;;;;;;;24.37;56.07;98023.97;5117234;27;41863;-84
2022/09/15 10:45:25;;;;;;;3.23;1.30;;;;;;;24.84;55.75;98038.47;5112423;27;42197;-80
2022/09/15 10:48:10;;;;;;;3.07;1.40;;;;;;;24.97;54.94;98036.59;5132796;27;40675;-85
2022/09/15 10:50:53;;;;;;;1.50;1.20;;;;;;;25.58;53.99;98044.53;5116465;27;40676;-82
2022/09/15 10:53:38;;;;;;;2.67;1.10;;;;;;;26.31;52.46;98033.50;5133048;27;43272;-81
2022/09/15 10:56:21;;;;;;;1.53;1.10;;;;;;;26.53;49.33;98075.59;5133254;27;41038;-85
2022/09/15 10:59:02;;;;;;;1.07;0.97;;;;;;;26.70;50.64;98063.19;5115579;27;39021;-85
2022/09/15 11:01:45;;;;;;;2.40;1.10;;;;;;;27.20;49.04;98071.41;5129910;27;41787;-83
2022/09/15 11:04:36;;;;;;;1.73;1.20;;;;;;;27.61;47.69;98075.50;5116295;27;42922;-84
2022/09/15 11:07:11;;;;;;;1.33;1.23;;;;;;;27.46;47.06;98073.09;5115696;27;42211;-83
2022/09/15 11:09:45;;;;;;;0.80;0.80;;;;;;;27.70;47.61;98068.72;5131002;27;41441;-84
2022/09/15 11:12:34;;;;;;;2.10;1.10;;;;;;;28.09;45.80;98079.19;5116068;27;41906;-81
2022/09/15 11:15:16;;;;;;;1.50;1.40;;;;;;;28.42;46.37;98083.47;5134166;27;43852;-82
2022/09/15 11:18:00;;;;;;;1.67;1.10;;;;;;;28.17;44.32;98062.56;5115569;27;44164;-86
2022/09/15 11:20:42;;;;;;;1.23;1.13;;;;;;;27.90;45.06;98080.25;5115461;27;41375;-81
2022/09/15 11:23:16;;;;;;;1.90;0.90;;;;;;;27.39;47.10;98065.00;5132818;27;44091;-83
2022/09/15 11:25:48;;;;;;;1.07;0.97;;;;;;;26.92;47.25;98057.41;5130923;27;42808;-83
2022/09/15 11:28:23;;;;;;;1.13;0.90;;;;;;;26.68;48.39;98046.25;5133473;27;41046;-84
2022/09/15 11:30:56;;;;;;;2.57;1.03;;;;;;;26.45;48.78;98056.84;5117253;27;40069;-81
2022/09/15 11:33:32;;;;;;;0.87;0.87;;;;;;;26.36;48.43;98079.81;5116166;27;42319;-83
2022/09/15 11:36:06;;;;;;;2.13;1.10;;;;;;;26.39;48.56;98074.81;5116559;27;41509;-82
2022/09/15 11:38:41;;;;;;;2.27;1.00;;;;;;;26.45;48.50;98084.00;5115479;27;42694;-82
2022/09/15 11:41:17;;;;;;;1.10;1.00;;;;;;;26.60;47.66;98081.81;5133548;27;39195;-83
2022/09/15 11:43:55;;;;;;;1.23;0.80;;;;;;;27.14;46.78;98089.47;5133129;27;41025;-82
2022/09/15 11:46:30;;;;;;;1.10;0.87;;;;;;;27.13;45.14;98085.06;5133605;27;42091;-82
2022/09/15 11:49:05;;;;;;;1.67;1.10;;;;;;;27.06;44.93;98097.06;5133480;27;42152;-81
2022/09/15 11:51:45;;;;;;;1.20;1.03;;;;;;;26.73;46.12;98081.72;5116278;27;39064;-84
2022/09/15 11:54:21;;;;;;;2.00;1.00;;;;;;;26.38;46.48;98083.16;5116117;27;43744;-80
2022/09/15 11:56:51;;;;;;;1.37;0.97;;;;;;;26.13;47.82;98075.72;5130355;27;42791;-86
2022/09/15 11:59:27;;;;;;;1.90;0.90;;;;;;;25.94;47.36;98079.34;5132939;27;41337;-84